Time;durP1;ratioP1;P1;durP2;ratioP2;P2;SDS_P1;SDS_P2;PMS_P1;PMS_P2;Temp;Humidity;BMP_temperature;BMP_pressure;BME280_temperature;BME280_humidity;BME280_pressure;Samples;Min_cycle;Max_cycle;Signal;HPM_P1;HPM_P2
2023/07/03 00:00:48;;;;;;;10.95;9.85;;;23.00;63.20;;;;;;5024773;28;20241;-68
2023/07/03 00:03:14;;;;;;;11.25;10.15;;;23.00;63.20;;;;;;5023338;28;20192;-68
2023/07/03 00:05:47;;;;;;;10.88;9.77;;;23.00;63.20;;;;;;5021219;28;20298;-68
2023/07/03 00:08:15;;;;;;;10.43;9.32;;;23.00;63.90;;;;;;5048146;28;20225;-69
2023/07/03 00:10:41;;;;;;;11.73;9.68;;;23.00;63.10;;;;;;5026739;28;20278;-68
2023/07/03 00:13:09;;;;;;;10.98;9.68;;;23.00;63.20;;;;;;5020415;28;20188;-69
2023/07/03 00:15:34;;;;;;;13.18;9.85;;;23.00;63.10;;;;;;5012714;28;20203;-68
2023/07/03 00:18:00;;;;;;;10.43;9.38;;;23.00;63.10;;;;;;5012505;28;20184;-68
2023/07/03 00:20:27;;;;;;;11.10;9.68;;;23.00;63.10;;;;;;5012464;28;20207;-68
2023/07/03 00:22:55;;;;;;;11.13;9.93;;;23.00;63.20;;;;;;5019995;28;20291;-68
2023/07/03 00:25:22;;;;;;;11.65;9.85;;;23.00;63.20;;;;;;5024109;28;20237;-68
2023/07/03 00:27:48;;;;;;;10.52;9.38;;;23.00;63.30;;;;;;5015675;28;20329;-68
2023/07/03 00:30:15;;;;;;;10.55;9.45;;;23.00;63.30;;;;;;5013379;28;20248;-68
2023/07/03 00:32:42;;;;;;;10.55;9.45;;;23.00;63.20;;;;;;5020509;28;20282;-68
2023/07/03 00:35:08;;;;;;;10.90;9.75;;;23.00;63.20;;;;;;5011981;28;20240;-68
2023/07/03 00:37:35;;;;;;;10.93;9.82;;;23.00;63.20;;;;;;5017045;28;20219;-68
2023/07/03 00:40:02;;;;;;;11.13;9.82;;;23.00;63.20;;;;;;5023383;28;20217;-68
2023/07/03 00:42:30;;;;;;;11.05;9.68;;;23.00;63.20;;;;;;5012016;28;20564;-70
2023/07/03 00:44:55;;;;;;;10.80;9.70;;;23.00;64.00;;;;;;5012374;28;20206;-68
2023/07/03 00:47:23;;;;;;;10.43;9.40;;;23.00;63.10;;;;;;5015075;28;20578;-68
2023/07/03 00:49:50;;;;;;;11.02;9.73;;;22.90;63.10;;;;;;5023880;28;20282;-68
2023/07/03 00:52:17;;;;;;;11.00;9.77;;;22.90;63.10;;;;;;5013020;28;20205;-68
2023/07/03 00:54:43;;;;;;;9.95;8.95;;;22.90;63.90;;;;;;5017840;28;20207;-68
2023/07/03 00:57:13;;;;;;;10.13;8.93;;;22.90;63.10;;;;;;4997688;28;20278;-66
2023/07/03 00:59:39;;;;;;;10.63;9.52;;;23.00;63.20;;;;;;4995482;28;20206;-68
2023/07/03 01:02:22;;;;;;;11.13;9.98;;;22.90;63.00;;;;;;5011696;28;20283;-68
2023/07/03 01:05:09;;;;;;;11.05;9.60;;;22.90;63.10;;;;;;5011839;28;20192;-68
2023/07/03 01:07:36;;;;;;;11.18;10.00;;;22.90;63.00;;;;;;5011775;28;20188;-68
2023/07/03 01:10:12;;;;;;;11.63;10.43;;;22.90;63.10;;;;;;5020938;28;20277;-68
2023/07/03 01:12:44;;;;;;;10.05;8.95;;;23.00;63.30;;;;;;5024789;28;20187;-68
2023/07/03 01:15:17;;;;;;;10.27;9.27;;;22.90;63.10;;;;;;5013622;28;20298;-68
2023/07/03 01:17:47;;;;;;;9.68;8.55;;;22.90;63.10;;;;;;4995171;28;20243;-68
2023/07/03 01:20:17;;;;;;;10.73;9.23;;;22.90;63.20;;;;;;5019920;28;20216;-68
2023/07/03 01:23:11;;;;;;;10.10;9.15;;;22.90;63.10;;;;;;5011679;28;20196;-68
2023/07/03 01:25:41;;;;;;;10.95;9.60;;;22.90;63.10;;;;;;5004608;28;20184;-68
2023/07/03 01:28:12;;;;;;;10.13;8.63;;;22.90;63.10;;;;;;5011281;28;20191;-68
2023/07/03 01:30:42;;;;;;;10.55;9.43;;;22.90;63.20;;;;;;5016707;28;20290;-68
2023/07/03 01:33:17;;;;;;;10.35;9.27;;;22.90;63.20;;;;;;5013884;28;20188;-68
2023/07/03 01:35:49;;;;;;;11.13;10.00;;;22.90;63.10;;;;;;5011678;28;20198;-68
2023/07/03 01:38:18;;;;;;;10.15;8.88;;;22.90;63.20;;;;;;5019359;28;20191;-68
2023/07/03 01:40:44;;;;;;;11.38;9.68;;;22.90;63.10;;;;;;5011448;28;20235;-69
2023/07/03 01:43:12;;;;;;;10.00;8.98;;;22.90;63.10;;;;;;5010939;28;20199;-68
2023/07/03 01:45:45;;;;;;;9.77;8.77;;;22.90;63.10;;;;;;4995050;28;20282;-68
2023/07/03 01:48:11;;;;;;;9.70;8.68;;;22.90;63.10;;;;;;5033873;28;20238;-68
2023/07/03 01:50:39;;;;;;;10.23;9.18;;;22.90;63.10;;;;;;5016031;28;20203;-68
2023/07/03 01:53:21;;;;;;;9.73;8.82;;;22.90;63.10;;;;;;5038494;28;20287;-68
2023/07/03 01:56:00;;;;;;;10.15;8.75;;;22.90;63.00;;;;;;5011168;28;20270;-68
2023/07/03 01:58:33;;;;;;;10.32;9.18;;;22.90;63.10;;;;;;4995105;28;20192;-68
2023/07/03 02:01:05;;;;;;;9.98;8.80;;;22.90;63.20;;;;;;4994769;28;20226;-68
2023/07/03 02:04:05;;;;;;;11.32;9.38;;;22.90;63.20;;;;;;5035830;28;20278;-68
2023/07/03 02:06:39;;;;;;;10.65;9.55;;;22.90;63.10;;;;;;5011068;28;20195;-68
2023/07/03 02:09:06;;;;;;;10.00;9.00;;;22.90;63.10;;;;;;5011133;28;20235;-68
2023/07/03 02:11:36;;;;;;;10.00;8.80;;;22.90;63.10;;;;;;5011022;28;20249;-68
2023/07/03 02:14:02;;;;;;;10.52;9.32;;;22.90;63.10;;;;;;5010635;28;20215;-69
2023/07/03 02:16:30;;;;;;;9.63;8.63;;;22.90;63.10;;;;;;4995108;28;20187;-69
2023/07/03 02:18:57;;;;;;;10.63;8.68;;;22.90;63.10;;;;;;5031020;28;20210;-68
2023/07/03 02:21:23;;;;;;;9.70;8.70;;;22.80;62.90;;;;;;5051228;28;20204;-68
2023/07/03 02:23:48;;;;;;;11.60;9.35;;;22.90;63.10;;;;;;5010111;28;20246;-68
2023/07/03 02:26:15;;;;;;;10.35;9.25;;;22.80;63.00;;;;;;5013050;28;20191;-69
2023/07/03 02:28:41;;;;;;;8.93;8.02;;;22.80;63.00;;;;;;5017404;28;20196;-68
2023/07/03 02:31:07;;;;;;;10.52;9.40;;;22.80;63.00;;;;;;5010793;28;20639;-68
2023/07/03 02:33:33;;;;;;;10.52;9.43;;;22.80;63.00;;;;;;5010458;28;20758;-68
2023/07/03 02:36:04;;;;;;;10.30;8.90;;;22.90;63.10;;;;;;5011659;28;20192;-69
2023/07/03 02:38:29;;;;;;;9.32;8.32;;;22.80;63.10;;;;;;5015585;28;20176;-67
2023/07/03 02:40:55;;;;;;;9.93;8.93;;;22.80;63.10;;;;;;5014466;28;20580;-66
2023/07/03 02:43:21;;;;;;;9.30;8.35;;;22.90;63.20;;;;;;5022315;28;20239;-67
2023/07/03 02:45:48;;;;;;;9.95;8.93;;;22.80;63.10;;;;;;4998097;28;20274;-68
2023/07/03 02:48:19;;;;;;;10.13;8.82;;;22.90;63.20;;;;;;5014271;28;20196;-68
2023/07/03 02:50:52;;;;;;;9.25;8.25;;;22.80;63.10;;;;;;5032817;28;20719;-68
2023/07/03 02:53:18;;;;;;;8.93;8.02;;;22.80;63.10;;;;;;5048439;28;20192;-68
2023/07/03 02:55:47;;;;;;;9.30;8.07;;;22.80;63.10;;;;;;5020883;28;20192;-68
2023/07/03 02:58:13;;;;;;;10.82;9.40;;;22.80;63.00;;;;;;5023483;28;20222;-68
2023/07/03 03:00:39;;;;;;;10.43;9.43;;;22.80;63.00;;;;;;5041274;28;20204;-68
2023/07/03 03:03:05;;;;;;;9.95;8.70;;;22.80;63.10;;;;;;5018233;28;20206;-68
2023/07/03 03:05:31;;;;;;;8.88;7.97;;;22.80;63.00;;;;;;5017608;28;20176;-68
2023/07/03 03:07:57;;;;;;;9.80;8.52;;;22.80;63.10;;;;;;5025416;28;20267;-68
2023/07/03 03:10:23;;;;;;;9.40;8.30;;;22.80;63.00;;;;;;5015444;28;20214;-69
2023/07/03 03:12:49;;;;;;;9.57;8.57;;;22.80;63.10;;;;;;5014040;28;20194;-67
2023/07/03 03:15:17;;;;;;;9.43;8.52;;;22.80;63.00;;;;;;5013601;28;20216;-68
2023/07/03 03:17:43;;;;;;;9.60;8.63;;;22.80;63.00;;;;;;5013822;28;20196;-67
2023/07/03 03:20:13;;;;;;;10.43;9.00;;;22.80;63.20;;;;;;5038519;28;20207;-66
2023/07/03 03:22:40;;;;;;;11.13;8.50;;;22.80;63.10;;;;;;5022196;28;20207;-68
2023/07/03 03:25:07;;;;;;;9.60;8.63;;;22.80;63.10;;;;;;5021419;28;20195;-68
2023/07/03 03:27:33;;;;;;;10.63;9.52;;;22.80;63.10;;;;;;5022074;28;20230;-69
2023/07/03 03:29:58;;;;;;;10.27;9.18;;;22.80;63.20;;;;;;5027374;28;20218;-68
2023/07/03 03:32:25;;;;;;;9.85;8.82;;;22.80;63.20;;;;;;5025246;28;20191;-68
2023/07/03 03:34:51;;;;;;;10.63;8.65;;;22.80;63.20;;;;;;5003218;28;20211;-68
2023/07/03 03:37:18;;;;;;;10.00;8.82;;;22.80;63.10;;;;;;5022891;28;20184;-68
2023/07/03 03:39:44;;;;;;;9.70;8.70;;;22.80;63.10;;;;;;5011881;28;20717;-68
2023/07/03 03:42:10;;;;;;;10.20;8.40;;;22.80;63.10;;;;;;5021474;28;20191;-68
2023/07/03 03:44:36;;;;;;;9.65;8.68;;;22.80;63.10;;;;;;5012928;28;20188;-68
2023/07/03 03:47:02;;;;;;;8.93;8.02;;;22.80;63.10;;;;;;5013217;28;20188;-68
2023/07/03 03:49:29;;;;;;;9.85;8.70;;;22.80;63.10;;;;;;5024029;28;20192;-68
2023/07/03 03:51:56;;;;;;;10.68;9.32;;;22.80;63.10;;;;;;5002105;28;20219;-68
2023/07/03 03:54:22;;;;;;;9.75;8.75;;;22.80;63.10;;;;;;5038975;28;20215;-68
2023/07/03 03:56:48;;;;;;;10.00;8.93;;;22.80;63.10;;;;;;5008573;28;20194;-68
2023/07/03 03:59:14;;;;;;;9.48;8.30;;;22.80;63.20;;;;;;5016087;28;20195;-68
2023/07/03 04:01:42;;;;;;;8.80;7.90;;;22.80;63.20;;;;;;5012884;28;20656;-68
2023/07/03 04:04:07;;;;;;;9.40;8.30;;;22.80;63.20;;;;;;5012798;28;20188;-68
2023/07/03 04:06:35;;;;;;;8.63;7.72;;;22.80;63.20;;;;;;5012811;28;20565;-67
2023/07/03 04:09:01;;;;;;;9.27;8.38;;;22.80;63.20;;;;;;5029536;28;20191;-68
2023/07/03 04:11:33;;;;;;;10.50;8.32;;;22.70;63.10;;;;;;5037289;28;20577;-69
2023/07/03 04:13:59;;;;;;;8.70;7.85;;;22.70;63.10;;;;;;5013783;28;20767;-68
2023/07/03 04:16:28;;;;;;;9.05;8.00;;;22.80;63.20;;;;;;4996486;28;20196;-68
2023/07/03 04:18:54;;;;;;;8.80;7.90;;;22.80;63.30;;;;;;5013031;28;20529;-68
2023/07/03 04:21:20;;;;;;;10.02;8.35;;;22.70;63.20;;;;;;5012583;28;20235;-68
2023/07/03 04:23:47;;;;;;;10.38;8.35;;;22.70;63.20;;;;;;5012539;28;20196;-68
2023/07/03 04:26:13;;;;;;;9.60;8.60;;;22.70;63.20;;;;;;4996742;28;20239;-68
2023/07/03 04:28:39;;;;;;;8.85;7.95;;;22.70;63.20;;;;;;5012513;28;20231;-67
2023/07/03 04:31:05;;;;;;;9.35;8.35;;;22.70;63.20;;;;;;5012692;28;20247;-68
2023/07/03 04:33:31;;;;;;;10.05;8.68;;;22.70;63.10;;;;;;5044709;28;20208;-69
2023/07/03 04:35:57;;;;;;;9.27;8.20;;;22.70;63.10;;;;;;5012650;28;20254;-68
2023/07/03 04:38:25;;;;;;;9.00;8.05;;;22.70;63.00;;;;;;5028996;28;20187;-68
2023/07/03 04:40:53;;;;;;;9.25;8.35;;;22.70;63.10;;;;;;5012216;28;20214;-69
2023/07/03 04:43:21;;;;;;;11.05;8.85;;;22.80;63.20;;;;;;5012370;28;20192;-68
2023/07/03 04:45:52;;;;;;;9.05;8.13;;;22.80;63.20;;;;;;5013459;28;20180;-68
2023/07/03 04:48:19;;;;;;;9.85;8.65;;;22.70;63.10;;;;;;5042826;28;20188;-68
2023/07/03 04:50:48;;;;;;;9.85;8.85;;;22.70;63.10;;;;;;4995759;28;20215;-68
2023/07/03 04:53:15;;;;;;;9.98;8.98;;;22.70;63.10;;;;;;5011719;28;20223;-68
2023/07/03 04:55:41;;;;;;;9.25;8.20;;;22.70;63.00;;;;;;5037030;28;20196;-68
2023/07/03 04:58:07;;;;;;;10.18;8.77;;;22.70;63.00;;;;;;5021570;28;20250;-67
2023/07/03 05:00:34;;;;;;;9.85;8.45;;;22.80;63.10;;;;;;5019952;28;20286;-67
2023/07/03 05:03:04;;;;;;;9.20;8.23;;;22.70;63.00;;;;;;5011522;28;20259;-68
2023/07/03 05:05:30;;;;;;;9.32;8.43;;;22.70;63.00;;;;;;5013998;28;20199;-68
2023/07/03 05:07:55;;;;;;;10.20;8.68;;;22.80;63.10;;;;;;5006870;28;20194;-68
2023/07/03 05:10:23;;;;;;;9.25;8.35;;;22.70;62.90;;;;;;4998830;28;20219;-68
2023/07/03 05:12:50;;;;;;;10.85;8.68;;;22.80;63.00;;;;;;5031662;28;20187;-69
2023/07/03 05:15:18;;;;;;;10.02;8.45;;;22.70;62.90;;;;;;5014858;28;20590;-68
2023/07/03 05:17:54;;;;;;;9.68;8.73;;;22.70;62.80;;;;;;5018563;28;20188;-68
2023/07/03 05:20:22;;;;;;;10.35;8.98;;;22.80;62.90;;;;;;4995762;28;20342;-68
2023/07/03 05:22:49;;;;;;;9.75;8.75;;;22.70;62.80;;;;;;5024353;28;20190;-68
2023/07/03 05:25:16;;;;;;;9.82;8.82;;;22.70;62.80;;;;;;5023259;28;20279;-68
2023/07/03 05:27:42;;;;;;;9.73;8.63;;;22.80;62.90;;;;;;4995085;28;20291;-67
2023/07/03 05:30:10;;;;;;;9.88;8.60;;;22.70;62.80;;;;;;5019917;28;20208;-68
2023/07/03 05:32:36;;;;;;;9.90;8.30;;;22.70;62.80;;;;;;5027538;28;20668;-67
2023/07/03 05:35:04;;;;;;;10.07;8.45;;;22.80;62.90;;;;;;5033990;28;20218;-69
2023/07/03 05:37:30;;;;;;;9.20;8.23;;;22.80;62.90;;;;;;5022573;28;20188;-69
2023/07/03 05:39:56;;;;;;;10.10;8.43;;;22.80;62.90;;;;;;5000566;28;20294;-68
2023/07/03 05:42:22;;;;;;;8.93;8.02;;;22.80;62.80;;;;;;5012333;28;20287;-70
2023/07/03 05:44:48;;;;;;;8.88;7.90;;;22.80;62.80;;;;;;5004108;28;20192;-68
2023/07/03 05:47:15;;;;;;;9.55;8.15;;;22.80;62.80;;;;;;5011076;28;20227;-68
2023/07/03 05:49:42;;;;;;;9.50;8.38;;;22.80;62.80;;;;;;5010894;28;20210;-68
2023/07/03 05:52:10;;;;;;;8.77;7.88;;;22.80;62.70;;;;;;5026290;28;20222;-70
2023/07/03 05:54:36;;;;;;;10.13;8.85;;;22.80;62.70;;;;;;5030430;28;20686;-68
2023/07/03 05:57:06;;;;;;;9.77;8.73;;;22.80;62.60;;;;;;5016734;28;20290;-68
2023/07/03 05:59:34;;;;;;;9.27;8.27;;;22.80;62.50;;;;;;5012916;28;20199;-68
2023/07/03 06:02:04;;;;;;;8.43;7.47;;;22.80;62.60;;;;;;5030708;28;20183;-68
2023/07/03 06:04:30;;;;;;;10.20;8.90;;;22.80;62.60;;;;;;5020753;28;20196;-67
2023/07/03 06:06:56;;;;;;;9.10;8.07;;;22.80;62.60;;;;;;5037597;28;20188;-68
2023/07/03 06:09:24;;;;;;;9.43;8.30;;;22.80;62.50;;;;;;5061337;28;20198;-68
2023/07/03 06:11:50;;;;;;;8.90;7.47;;;22.80;62.50;;;;;;5010020;28;20210;-68
2023/07/03 06:14:17;;;;;;;9.32;8.30;;;22.80;62.40;;;;;;5029012;28;20686;-68
2023/07/03 06:16:45;;;;;;;8.82;7.93;;;22.80;62.40;;;;;;4990460;28;20195;-68
2023/07/03 06:19:14;;;;;;;9.32;7.88;;;22.80;62.50;;;;;;5006745;28;20195;-69
2023/07/03 06:21:40;;;;;;;9.93;8.38;;;22.80;62.30;;;;;;5015083;28;20238;-68
2023/07/03 06:24:09;;;;;;;11.23;8.35;;;22.80;62.40;;;;;;5021440;28;20252;-68
2023/07/03 06:26:38;;;;;;;8.98;7.53;;;22.80;62.40;;;;;;5024044;28;20199;-68
2023/07/03 06:29:05;;;;;;;9.23;7.43;;;22.80;62.30;;;;;;5023083;28;20191;-68
2023/07/03 06:31:31;;;;;;;9.45;8.02;;;22.90;62.40;;;;;;5016126;28;20215;-68
2023/07/03 06:33:57;;;;;;;9.48;8.15;;;22.80;62.30;;;;;;5004309;28;20219;-68
2023/07/03 06:36:23;;;;;;;8.93;7.80;;;22.80;62.30;;;;;;5014800;28;20192;-68
2023/07/03 06:38:55;;;;;;;9.23;7.97;;;22.90;62.40;;;;;;5006177;28;20184;-68
2023/07/03 06:41:28;;;;;;;8.55;7.50;;;22.90;62.40;;;;;;5014055;28;20208;-68
2023/07/03 06:43:56;;;;;;;8.95;7.53;;;22.80;62.30;;;;;;5014307;28;20200;-67
2023/07/03 06:46:22;;;;;;;9.00;8.05;;;22.80;62.20;;;;;;5014137;28;20192;-66
2023/07/03 06:48:48;;;;;;;8.45;7.55;;;22.80;62.30;;;;;;5039243;28;20200;-68
2023/07/03 06:51:14;;;;;;;8.07;7.28;;;22.80;62.30;;;;;;5021812;28;20218;-66
2023/07/03 06:53:41;;;;;;;7.90;7.10;;;22.90;62.40;;;;;;5030315;28;20420;-66
2023/07/03 06:56:08;;;;;;;9.20;8.00;;;22.80;62.20;;;;;;5015260;28;20223;-69
2023/07/03 06:58:35;;;;;;;8.55;7.65;;;22.90;62.30;;;;;;4997939;28;20254;-68
2023/07/03 07:01:10;;;;;;;8.57;7.63;;;22.90;62.20;;;;;;5014007;28;20208;-68
2023/07/03 07:03:37;;;;;;;9.25;7.57;;;22.90;62.20;;;;;;5024355;28;20199;-68
2023/07/03 07:06:23;;;;;;;9.50;7.78;;;22.90;62.20;;;;;;5026088;28;20195;-68
2023/07/03 07:08:50;;;;;;;9.68;8.13;;;22.90;62.20;;;;;;5007318;28;20184;-68
2023/07/03 07:11:25;;;;;;;9.70;8.07;;;22.90;62.20;;;;;;5005606;28;20208;-67
2023/07/03 07:13:53;;;;;;;9.32;7.53;;;22.90;62.10;;;;;;5017303;28;20226;-68
2023/07/03 07:16:37;;;;;;;8.45;7.13;;;22.90;62.00;;;;;;5047253;28;20253;-68
2023/07/03 07:19:07;;;;;;;8.80;7.22;;;22.90;62.20;;;;;;5016295;28;20237;-67
2023/07/03 07:21:38;;;;;;;8.15;7.30;;;22.90;61.90;;;;;;5006555;28;20208;-67
2023/07/03 07:24:18;;;;;;;9.43;7.03;;;22.90;62.00;;;;;;5011612;28;20616;-68
2023/07/03 07:26:45;;;;;;;8.20;7.32;;;22.90;62.10;;;;;;5016788;28;20179;-68
2023/07/03 07:29:11;;;;;;;9.98;7.43;;;22.90;62.20;;;;;;5018800;28;20203;-68
2023/07/03 07:31:37;;;;;;;9.32;7.68;;;22.90;62.10;;;;;;5013399;28;20212;-68
2023/07/03 07:34:05;;;;;;;9.13;7.25;;;22.90;62.10;;;;;;5013418;28;20702;-68
2023/07/03 07:36:32;;;;;;;9.00;7.93;;;22.90;62.00;;;;;;5013382;28;20192;-68
2023/07/03 07:39:00;;;;;;;9.85;7.65;;;23.00;62.10;;;;;;5002100;28;20176;-68
2023/07/03 07:41:27;;;;;;;8.93;7.28;;;22.90;62.10;;;;;;5016317;28;20270;-68
2023/07/03 07:43:54;;;;;;;9.32;7.40;;;23.00;62.00;;;;;;5018537;28;20192;-68
2023/07/03 07:46:25;;;;;;;8.20;6.75;;;23.00;61.90;;;;;;5017150;28;20191;-68
2023/07/03 07:48:51;;;;;;;7.75;6.95;;;23.00;61.90;;;;;;5030035;28;20184;-68
2023/07/03 07:51:17;;;;;;;8.68;6.88;;;23.00;61.80;;;;;;5013297;28;20207;-67
2023/07/03 07:53:43;;;;;;;8.73;7.28;;;23.00;61.70;;;;;;5015222;28;20266;-68
2023/07/03 07:56:10;;;;;;;7.65;6.85;;;23.00;61.70;;;;;;5024674;28;20188;-68
2023/07/03 07:58:37;;;;;;;9.02;7.15;;;23.00;61.50;;;;;;5022745;28;20187;-68
2023/07/03 08:01:04;;;;;;;10.20;7.55;;;23.00;61.60;;;;;;5013217;28;20683;-68
2023/07/03 08:03:30;;;;;;;9.10;7.57;;;23.00;61.50;;;;;;5014730;28;20648;-68
2023/07/03 08:06:03;;;;;;;7.57;6.60;;;23.00;61.60;;;;;;5029518;28;20188;-68
2023/07/03 08:08:31;;;;;;;9.27;7.43;;;23.00;61.90;;;;;;5045887;28;20227;-68
2023/07/03 08:11:02;;;;;;;7.78;6.97;;;23.00;61.60;;;;;;5013048;28;20199;-68
2023/07/03 08:13:30;;;;;;;10.40;6.90;;;23.00;61.90;;;;;;5020690;28;20316;-68
2023/07/03 08:15:56;;;;;;;8.57;6.90;;;23.00;61.90;;;;;;5012712;28;20254;-68
2023/07/03 08:18:23;;;;;;;8.73;6.72;;;23.00;61.80;;;;;;5012634;28;20263;-68
2023/07/03 08:20:50;;;;;;;9.13;6.70;;;23.00;61.70;;;;;;5021825;28;20283;-68
2023/07/03 08:23:16;;;;;;;8.60;6.82;;;23.00;61.80;;;;;;4996423;28;20195;-68
2023/07/03 08:25:43;;;;;;;9.05;7.10;;;23.00;61.40;;;;;;5012456;28;20275;-69
2023/07/03 08:28:10;;;;;;;8.45;6.78;;;23.00;61.60;;;;;;5029128;28;20199;-68
2023/07/03 08:30:36;;;;;;;7.53;6.60;;;23.00;61.70;;;;;;5012256;28;20219;-68
2023/07/03 08:33:02;;;;;;;7.35;6.57;;;23.00;61.40;;;;;;5012788;28;20231;-69
2023/07/03 08:35:28;;;;;;;9.52;7.15;;;23.10;61.40;;;;;;5012133;28;20301;-68
2023/07/03 08:37:54;;;;;;;9.30;6.90;;;23.10;61.50;;;;;;5012304;28;20199;-68
2023/07/03 08:40:22;;;;;;;9.25;6.75;;;23.00;61.30;;;;;;5012861;28;20295;-68
2023/07/03 08:42:55;;;;;;;8.60;7.05;;;23.10;61.40;;;;;;5012027;28;20197;-68
2023/07/03 08:45:31;;;;;;;8.73;6.72;;;23.10;61.40;;;;;;5012155;28;20188;-68
2023/07/03 08:48:01;;;;;;;6.72;6.07;;;23.10;61.40;;;;;;5016221;28;20240;-70
2023/07/03 08:50:29;;;;;;;8.23;6.32;;;23.10;61.30;;;;;;4999047;28;20218;-69
2023/07/03 08:53:03;;;;;;;7.55;6.30;;;23.10;61.60;;;;;;5011808;28;20215;-67
2023/07/03 08:55:37;;;;;;;8.13;6.72;;;23.10;61.60;;;;;;5042007;28;20299;-68
2023/07/03 08:58:03;;;;;;;7.88;6.38;;;23.10;61.60;;;;;;4995942;28;20199;-68
2023/07/03 09:00:38;;;;;;;8.32;6.65;;;23.10;61.50;;;;;;5011602;28;20203;-68
2023/07/03 09:03:38;;;;;;;6.80;6.03;;;23.10;61.60;;;;;;4995489;28;20230;-68
2023/07/03 09:06:12;;;;;;;8.57;6.55;;;23.10;61.40;;;;;;4976401;28;20291;-68
2023/07/03 09:09:04;;;;;;;8.45;6.25;;;23.10;61.30;;;;;;4996706;28;20254;-68
2023/07/03 09:11:37;;;;;;;8.07;6.38;;;23.10;61.40;;;;;;5011651;28;20231;-70
2023/07/03 09:14:05;;;;;;;6.78;6.13;;;23.10;61.50;;;;;;4995220;28;20235;-68
2023/07/03 09:16:31;;;;;;;6.82;6.13;;;23.10;61.40;;;;;;5014921;28;20730;-68
2023/07/03 09:19:10;;;;;;;8.02;6.60;;;23.10;61.60;;;;;;5019546;28;20239;-68
2023/07/03 09:21:39;;;;;;;6.95;6.25;;;23.10;61.60;;;;;;5011435;28;20298;-68
2023/07/03 09:24:33;;;;;;;7.50;5.82;;;23.10;61.60;;;;;;5011323;28;20307;-68
2023/07/03 09:27:23;;;;;;;7.57;6.15;;;23.10;61.60;;;;;;4987831;28;20199;-68
2023/07/03 09:29:49;;;;;;;9.20;6.97;;;23.10;61.40;;;;;;5019454;28;20192;-67
2023/07/03 09:32:30;;;;;;;6.88;6.20;;;23.10;61.50;;;;;;5019614;28;20196;-68
2023/07/03 09:35:15;;;;;;;7.80;6.30;;;23.10;61.40;;;;;;5003642;28;20299;-67
2023/07/03 09:38:09;;;;;;;6.60;5.82;;;23.10;62.00;;;;;;5012778;28;20282;-69
2023/07/03 09:40:39;;;;;;;6.00;5.40;;;23.10;61.80;;;;;;4994920;28;20207;-68
2023/07/03 09:43:27;;;;;;;7.72;5.88;;;23.20;61.70;;;;;;5011553;28;20199;-68
2023/07/03 09:46:14;;;;;;;7.22;6.07;;;23.20;61.70;;;;;;5011209;28;20192;-68
2023/07/03 09:48:40;;;;;;;6.40;5.80;;;23.10;61.30;;;;;;5019419;28;20187;-68
2023/07/03 09:51:21;;;;;;;7.55;6.32;;;23.20;61.30;;;;;;5011056;28;20294;-68
2023/07/03 09:53:47;;;;;;;7.10;6.40;;;23.10;61.50;;;;;;5010973;28;20235;-69
2023/07/03 09:56:21;;;;;;;8.63;5.95;;;23.20;61.70;;;;;;5010792;28;20291;-68
2023/07/03 09:58:52;;;;;;;7.68;5.95;;;23.20;61.50;;;;;;5017842;28;20197;-67
2023/07/03 10:01:23;;;;;;;7.82;6.15;;;23.20;61.60;;;;;;5011378;28;20211;-66
2023/07/03 10:04:10;;;;;;;5.57;5.07;;;23.20;62.30;;;;;;4994555;28;20200;-68
2023/07/03 10:06:38;;;;;;;7.90;6.10;;;23.20;61.50;;;;;;5011303;28;20275;-69
2023/07/03 10:09:17;;;;;;;9.43;5.90;;;23.20;61.20;;;;;;5011086;28;20196;-68
2023/07/03 10:12:09;;;;;;;7.00;5.53;;;23.20;61.30;;;;;;5011029;28;20205;-68
2023/07/03 10:14:52;;;;;;;6.97;5.63;;;23.20;61.30;;;;;;5010604;28;20262;-67
2023/07/03 10:17:28;;;;;;;8.40;5.60;;;23.20;61.30;;;;;;4994979;28;20243;-69
2023/07/03 10:20:08;;;;;;;8.15;5.85;;;23.20;61.50;;;;;;5027245;28;20184;-69
2023/07/03 10:22:34;;;;;;;9.57;5.85;;;23.20;61.20;;;;;;5010631;28;20184;-68
2023/07/03 10:25:05;;;;;;;6.57;5.80;;;23.20;60.90;;;;;;5010519;28;20187;-68
2023/07/03 10:27:33;;;;;;;8.00;5.75;;;23.20;61.00;;;;;;5011231;28;20648;-68
2023/07/03 10:30:03;;;;;;;6.70;5.50;;;23.20;60.90;;;;;;5010925;28;20631;-67
2023/07/03 10:32:33;;;;;;;6.85;5.45;;;23.20;60.90;;;;;;5011033;28;20180;-68
2023/07/03 10:35:22;;;;;;;6.57;5.72;;;23.20;60.70;;;;;;5010687;28;20208;-68
2023/07/03 10:38:12;;;;;;;8.98;6.15;;;23.20;60.90;;;;;;5002337;28;20655;-68
2023/07/03 10:41:03;;;;;;;6.65;5.13;;;23.20;61.10;;;;;;4990856;28;20220;-68
2023/07/03 10:43:38;;;;;;;6.40;5.63;;;23.20;60.90;;;;;;5010612;28;20192;-69
2023/07/03 10:46:13;;;;;;;7.60;6.07;;;23.20;61.20;;;;;;5003028;28;20183;-68
2023/07/03 10:48:39;;;;;;;5.93;5.32;;;23.20;60.80;;;;;;4994011;28;20186;-68
2023/07/03 10:51:40;;;;;;;6.13;5.15;;;23.20;60.80;;;;;;5010439;28;20207;-68
2023/07/03 10:54:20;;;;;;;9.32;5.55;;;23.20;61.00;;;;;;5003263;28;20215;-68
2023/07/03 10:56:51;;;;;;;8.55;5.30;;;23.20;61.10;;;;;;4994966;28;20191;-68
2023/07/03 10:59:34;;;;;;;7.00;5.43;;;23.20;60.90;;;;;;5013896;28;20184;-68
2023/07/03 11:02:35;;;;;;;6.15;5.38;;;23.20;60.90;;;;;;5014439;28;20184;-69
2023/07/03 11:05:45;;;;;;;8.15;5.82;;;23.20;60.80;;;;;;5040873;28;20184;-68
2023/07/03 11:08:28;;;;;;;5.97;5.35;;;23.20;60.80;;;;;;5007057;28;20196;-69
2023/07/03 11:11:22;;;;;;;7.35;5.63;;;23.10;60.90;;;;;;5017870;28;20220;-68
2023/07/03 11:14:25;;;;;;;6.85;5.25;;;23.20;61.00;;;;;;4997466;28;20212;-69
2023/07/03 11:17:06;;;;;;;6.85;5.50;;;23.20;60.80;;;;;;5013979;28;20191;-68
2023/07/03 11:19:46;;;;;;;6.15;5.35;;;23.10;60.50;;;;;;5013872;28;20180;-68
2023/07/03 11:22:30;;;;;;;7.78;5.78;;;23.20;60.70;;;;;;5017377;28;20238;-68
2023/07/03 11:25:33;;;;;;;8.00;5.93;;;23.10;60.80;;;;;;5019257;28;20192;-68
2023/07/03 11:28:14;;;;;;;5.95;4.95;;;23.20;60.90;;;;;;5013691;28;20188;-68
2023/07/03 11:30:42;;;;;;;6.82;5.28;;;23.10;60.70;;;;;;5013051;28;20718;-68
2023/07/03 11:33:09;;;;;;;6.72;5.25;;;23.20;60.50;;;;;;5014343;28;20223;-68
2023/07/03 11:35:35;;;;;;;6.57;5.32;;;23.20;60.50;;;;;;5013213;28;20201;-68
2023/07/03 11:38:04;;;;;;;6.70;4.93;;;23.20;60.70;;;;;;5013110;28;20770;-68
2023/07/03 11:40:57;;;;;;;6.30;4.95;;;23.20;60.60;;;;;;5017462;28;20212;-68
2023/07/03 11:43:29;;;;;;;7.40;5.80;;;23.20;60.90;;;;;;5044199;28;20199;-68
2023/07/03 11:45:58;;;;;;;7.22;5.50;;;23.20;60.60;;;;;;4996336;28;20263;-68
2023/07/03 11:48:37;;;;;;;8.27;5.18;;;23.20;60.80;;;;;;5013036;28;20223;-70
2023/07/03 11:51:13;;;;;;;6.85;4.90;;;23.10;60.20;;;;;;5005342;28;20211;-69
2023/07/03 11:53:40;;;;;;;7.22;4.97;;;23.20;60.80;;;;;;5014139;28;20207;-67
2023/07/03 11:56:33;;;;;;;6.55;5.07;;;23.20;60.50;;;;;;4997227;28;20195;-68
2023/07/03 11:59:17;;;;;;;7.10;6.40;;;23.20;60.30;;;;;;5014100;28;20180;-69
2023/07/03 12:01:43;;;;;;;10.20;7.07;;;23.20;60.30;;;;;;5014415;28;20219;-69
2023/07/03 12:04:09;;;;;;;10.63;7.45;;;23.20;60.50;;;;;;5013020;28;20192;-68
2023/07/03 12:06:40;;;;;;;9.43;5.82;;;23.20;60.50;;;;;;5012892;28;20275;-68
2023/07/03 12:09:25;;;;;;;6.38;4.97;;;23.20;60.30;;;;;;5012929;28;20219;-67
2023/07/03 12:11:59;;;;;;;7.53;5.43;;;23.20;60.60;;;;;;4996170;28;20208;-68
2023/07/03 12:14:56;;;;;;;6.22;5.55;;;23.20;60.50;;;;;;4996157;28;20253;-69
2023/07/03 12:17:36;;;;;;;5.32;4.82;;;23.20;60.10;;;;;;5009730;28;20200;-68
2023/07/03 12:20:12;;;;;;;6.30;4.65;;;23.20;60.20;;;;;;5012209;28;20212;-68
2023/07/03 12:22:45;;;;;;;5.32;4.65;;;23.20;60.20;;;;;;4996507;28;20194;-67
2023/07/03 12:25:20;;;;;;;5.93;4.90;;;23.20;59.80;;;;;;5012606;28;20199;-68
2023/07/03 12:27:48;;;;;;;6.30;5.40;;;23.20;60.20;;;;;;5029178;28;20211;-68
2023/07/03 12:30:30;;;;;;;6.90;5.05;;;23.20;59.80;;;;;;5013685;28;20594;-68
2023/07/03 12:32:58;;;;;;;7.72;5.35;;;23.20;60.00;;;;;;4996236;28;20195;-69
2023/07/03 12:35:30;;;;;;;7.03;5.20;;;23.20;60.20;;;;;;5012596;28;20215;-68
2023/07/03 12:38:06;;;;;;;7.50;5.25;;;23.20;60.20;;;;;;5012595;28;20203;-68
2023/07/03 12:40:32;;;;;;;5.53;4.88;;;23.20;60.00;;;;;;5012288;28;20258;-69
2023/07/03 12:42:58;;;;;;;6.65;5.50;;;23.20;60.10;;;;;;5012131;28;20187;-68
2023/07/03 12:45:28;;;;;;;6.40;4.60;;;23.20;60.20;;;;;;5012699;28;20195;-68
2023/07/03 12:48:09;;;;;;;5.95;4.82;;;23.20;60.20;;;;;;5012282;28;20667;-68
2023/07/03 12:50:55;;;;;;;5.43;4.72;;;23.20;59.90;;;;;;5012237;28;20208;-69
2023/07/03 12:53:22;;;;;;;5.40;4.90;;;23.20;60.20;;;;;;5028428;28;20200;-69
2023/07/03 12:55:58;;;;;;;6.45;4.80;;;23.20;60.20;;;;;;5011604;28;20216;-69
2023/07/03 12:58:25;;;;;;;6.20;4.43;;;23.20;60.10;;;;;;5012064;28;20199;-68
2023/07/03 13:01:06;;;;;;;5.95;4.90;;;23.20;60.20;;;;;;5013030;28;20297;-68
2023/07/03 13:03:38;;;;;;;5.80;4.63;;;23.20;60.20;;;;;;4995376;28;20199;-68